Time;durP1;ratioP1;P1;durP2;ratioP2;P2;SDS_P1;SDS_P2;PMS_P1;PMS_P2;Temp;Humidity;BMP_temperature;BMP_pressure;BME280_temperature;BME280_humidity;BME280_pressure;Samples;Min_cycle;Max_cycle;Signal;HPM_P1;HPM_P2
2022/02/18 00:02:06;;;;;;;6.37;1.43;;;;;;;3.79;78.52;99892.34;5021772;28;20212;-76
2022/02/18 00:04:32;;;;;;;2.03;1.20;;;;;;;3.85;77.67;99894.00;5019080;28;20238;-75
2022/02/18 00:07:00;;;;;;;6.10;1.40;;;;;;;3.84;77.82;99894.06;5015249;28;20645;-75
2022/02/18 00:09:26;;;;;;;2.30;1.17;;;;;;;3.81;77.21;99899.25;5019048;28;20228;-75
2022/02/18 00:11:53;;;;;;;4.53;1.63;;;;;;;3.85;76.25;99893.16;5022543;28;20192;-78
2022/02/18 00:14:20;;;;;;;7.33;1.40;;;;;;;3.85;76.60;99895.75;5022661;28;20195;-76
2022/02/18 00:16:47;;;;;;;4.60;1.20;;;;;;;3.78;76.78;99894.94;5022420;28;20208;-79
2022/02/18 00:19:14;;;;;;;4.50;1.50;;;;;;;3.76;76.44;99899.28;5027221;28;20219;-78
2022/02/18 00:21:40;;;;;;;4.77;1.57;;;;;;;3.75;76.69;99901.00;5021196;28;20211;-75
2022/02/18 00:24:07;;;;;;;6.50;1.40;;;;;;;3.64;77.06;99901.97;5024117;28;20702;-75
2022/02/18 00:26:33;;;;;;;3.63;1.20;;;;;;;3.74;75.92;99909.59;5019132;28;20728;-75
2022/02/18 00:28:59;;;;;;;4.70;1.10;;;;;;;3.66;76.41;99926.00;5020598;28;20205;-75
2022/02/18 00:31:27;;;;;;;4.07;1.27;;;;;;;3.64;76.45;99915.72;5015781;28;20232;-73
2022/02/18 00:33:55;;;;;;;6.27;1.50;;;;;;;3.65;76.34;99917.44;5020817;28;20198;-75
2022/02/18 00:36:21;;;;;;;3.50;1.07;;;;;;;3.59;76.78;99920.91;5015308;28;20234;-73
2022/02/18 00:38:47;;;;;;;4.80;1.43;;;;;;;3.53;77.32;99925.28;5019720;28;20228;-74
2022/02/18 00:41:14;;;;;;;4.30;1.47;;;;;;;3.56;77.00;99928.66;5017537;28;20232;-75
2022/02/18 00:43:41;;;;;;;5.77;1.30;;;;;;;3.54;77.06;99925.25;5018708;28;20212;-76
2022/02/18 00:46:07;;;;;;;3.73;1.50;;;;;;;3.55;76.96;99946.72;5018598;28;20794;-75
2022/02/18 00:48:36;;;;;;;4.17;1.47;;;;;;;3.60;76.70;99939.81;5022529;28;20212;-73
2022/02/18 00:51:02;;;;;;;5.50;1.13;;;;;;;3.60;76.37;99944.97;5018039;28;20225;-75
2022/02/18 00:53:28;;;;;;;4.77;1.50;;;;;;;3.62;76.39;99942.38;5024106;28;20215;-76
2022/02/18 00:55:55;;;;;;;4.87;1.30;;;;;;;3.57;76.83;99965.59;5022838;28;20206;-74
2022/02/18 00:58:23;;;;;;;3.03;1.00;;;;;;;3.58;76.50;99942.41;5019396;28;20197;-75
2022/02/18 01:00:50;;;;;;;4.40;1.10;;;;;;;3.46;77.00;99950.22;5014924;28;20995;-75
2022/02/18 01:03:16;;;;;;;5.27;1.20;;;;;;;3.37;77.82;99956.31;5024691;28;20216;-74
2022/02/18 01:05:46;;;;;;;5.40;1.33;;;;;;;3.24;78.15;99965.00;5026223;28;20207;-75
2022/02/18 01:08:12;;;;;;;3.43;1.10;;;;;;;3.17;78.31;99969.34;5026389;28;20204;-78
2022/02/18 01:10:41;;;;;;;3.63;1.27;;;;;;;3.17;77.94;99966.75;5023051;28;20624;-75
2022/02/18 01:13:08;;;;;;;2.80;1.00;;;;;;;3.12;78.77;99968.50;5023935;28;20751;-75
2022/02/18 01:15:34;;;;;;;2.93;1.20;;;;;;;2.99;79.20;99964.28;5019767;28;20196;-76
2022/02/18 01:18:01;;;;;;;4.27;0.90;;;;;;;2.96;79.21;99969.47;5023968;28;20200;-75
2022/02/18 01:20:28;;;;;;;4.47;1.20;;;;;;;2.91;79.74;99977.22;5020272;28;20267;-76
2022/02/18 01:22:55;;;;;;;4.87;1.20;;;;;;;2.84;80.56;99966.09;5029436;28;20216;-75
2022/02/18 01:25:22;;;;;;;3.53;1.10;;;;;;;2.77;80.52;99966.97;5022908;28;20538;-76
2022/02/18 01:27:48;;;;;;;5.27;1.37;;;;;;;2.63;81.50;99976.50;5021116;28;20197;-75
2022/02/18 01:30:15;;;;;;;6.13;1.30;;;;;;;2.53;82.20;99979.94;5019582;28;20235;-76
2022/02/18 01:32:41;;;;;;;2.83;1.00;;;;;;;2.48;82.60;99987.72;5026203;28;20212;-74
2022/02/18 01:35:10;;;;;;;7.03;1.67;;;;;;;2.41;82.61;99986.88;5022239;28;20211;-75
2022/02/18 01:37:36;;;;;;;4.67;1.40;;;;;;;2.36;83.37;99982.59;5036018;28;20294;-75
2022/02/18 01:40:05;;;;;;;4.00;1.07;;;;;;;2.31;83.63;99987.75;5021393;28;20235;-74
2022/02/18 01:42:34;;;;;;;3.03;1.10;;;;;;;2.31;83.61;99990.31;5024512;28;20208;-76
2022/02/18 01:45:01;;;;;;;1.60;1.03;;;;;;;2.22;84.95;99988.63;5023111;28;20652;-75
2022/02/18 01:47:27;;;;;;;2.97;1.10;;;;;;;2.16;85.28;99992.91;5026036;28;20210;-75
2022/02/18 01:49:58;;;;;;;4.13;0.90;;;;;;;2.10;85.93;99995.50;5020506;28;20388;-75
2022/02/18 01:52:27;;;;;;;7.00;1.30;;;;;;;2.09;86.19;99992.06;5022391;28;20223;-75
2022/02/18 01:54:54;;;;;;;4.30;1.10;;;;;;;2.02;86.66;99996.38;5019735;28;20762;-75
2022/02/18 01:57:23;;;;;;;3.90;0.93;;;;;;;1.97;87.00;99989.50;5026362;28;20192;-74
2022/02/18 01:59:49;;;;;;;3.53;1.03;;;;;;;1.96;87.01;99998.94;5020345;28;20220;-75
2022/02/18 02:02:16;;;;;;;2.47;1.03;;;;;;;1.98;87.27;100004.09;5021684;28;20282;-75
2022/02/18 02:04:45;;;;;;;4.50;1.23;;;;;;;1.93;87.99;99998.94;5023107;28;20199;-75
2022/02/18 02:07:13;;;;;;;8.57;1.57;;;;;;;1.93;87.96;99991.22;5028166;28;20234;-75
2022/02/18 02:09:41;;;;;;;2.73;0.90;;;;;;;1.94;88.67;99997.25;5022660;28;20231;-75
2022/02/18 02:12:09;;;;;;;3.07;1.20;;;;;;;1.92;88.66;99993.78;5022724;28;20204;-75
2022/02/18 02:14:43;;;;;;;5.40;1.50;;;;;;;1.95;88.60;99984.38;5023714;28;20286;-76
2022/02/18 02:17:11;;;;;;;2.87;1.10;;;;;;;1.92;88.39;99975.78;5024540;28;20235;-75
2022/02/18 02:19:38;;;;;;;2.00;1.07;;;;;;;1.97;88.60;99992.09;5017543;28;20732;-75
2022/02/18 02:22:05;;;;;;;3.33;1.10;;;;;;;1.94;88.75;99984.41;5021650;28;20220;-75
2022/02/18 02:24:33;;;;;;;4.63;0.90;;;;;;;1.94;88.22;99979.25;5029106;28;20306;-76
2022/02/18 02:27:00;;;;;;;6.03;1.27;;;;;;;1.86;88.66;99982.66;5022271;28;20752;-75
2022/02/18 02:29:26;;;;;;;5.43;1.40;;;;;;;1.85;89.34;99990.41;5019373;28;20577;-76
2022/02/18 02:31:57;;;;;;;2.90;1.03;;;;;;;1.99;87.96;99993.81;5026056;28;20215;-75
2022/02/18 02:34:23;;;;;;;8.03;1.40;;;;;;;2.04;87.75;99998.94;5022054;28;20238;-75
2022/02/18 02:36:50;;;;;;;5.60;1.10;;;;;;;2.07;87.00;99992.06;5022676;28;20200;-75
2022/02/18 02:39:17;;;;;;;2.97;1.20;;;;;;;2.04;87.57;99996.34;5017516;28;20696;-76
2022/02/18 02:41:45;;;;;;;7.03;1.53;;;;;;;2.01;87.28;100007.50;5019992;28;20200;-75
2022/02/18 02:44:14;;;;;;;4.87;1.20;;;;;;;1.96;87.85;100006.66;5022196;28;20218;-75
2022/02/18 02:46:40;;;;;;;5.83;1.30;;;;;;;1.89;88.57;99997.25;5025303;28;20204;-75
2022/02/18 02:49:21;;;;;;;1.77;0.90;;;;;;;1.85;88.55;100004.09;5022558;28;20214;-75
2022/02/18 02:51:49;;;;;;;6.33;1.63;;;;;;;1.85;88.44;100001.53;5029390;28;20188;-76
2022/02/18 02:54:16;;;;;;;3.43;1.30;;;;;;;1.80;89.09;100002.41;5024816;28;20208;-75
2022/02/18 02:56:45;;;;;;;6.37;1.30;;;;;;;1.68;89.73;99996.38;5021783;28;20776;-76
2022/02/18 02:59:24;;;;;;;3.77;1.07;;;;;;;1.66;89.68;100003.25;5020166;28;20196;-74
2022/02/18 03:01:52;;;;;;;5.37;1.70;;;;;;;1.64;89.86;100007.53;5023109;28;20212;-75
2022/02/18 03:04:19;;;;;;;5.37;1.30;;;;;;;1.71;88.88;100008.41;5021975;28;20231;-75
2022/02/18 03:06:46;;;;;;;2.63;1.17;;;;;;;1.67;89.03;100006.66;5022519;28;20827;-74
2022/02/18 03:09:13;;;;;;;5.20;1.53;;;;;;;1.67;89.37;100007.53;5023941;28;20296;-75
2022/02/18 03:12:01;;;;;;;2.33;1.20;;;;;;;1.79;88.61;100014.38;5021941;28;20208;-74
2022/02/18 03:14:43;;;;;;;5.87;1.03;;;;;;;1.74;88.61;100020.38;5017709;28;20611;-76
2022/02/18 03:17:14;;;;;;;7.10;1.20;;;;;;;1.69;88.84;100031.53;5029286;28;20199;-74
2022/02/18 03:19:40;;;;;;;8.13;1.50;;;;;;;1.73;88.75;100029.81;5021734;28;20499;-76
2022/02/18 03:22:07;;;;;;;3.63;1.30;;;;;;;1.66;89.28;100026.38;5026947;28;20766;-78
2022/02/18 03:24:34;;;;;;;4.73;1.37;;;;;;;1.63;89.78;100028.94;5021212;28;20200;-78
2022/02/18 03:27:02;;;;;;;3.10;1.10;;;;;;;1.67;89.03;100034.94;5028795;28;20209;-75
2022/02/18 03:29:32;;;;;;;3.13;1.00;;;;;;;1.76;89.06;100031.50;5019229;28;20647;-76
2022/02/18 03:32:04;;;;;;;3.63;1.07;;;;;;;1.82;89.20;100031.53;5027619;28;20196;-75
2022/02/18 03:34:32;;;;;;;3.50;1.30;;;;;;;1.87;88.84;100032.38;5021043;28;20224;-75
2022/02/18 03:36:59;;;;;;;9.27;1.50;;;;;;;1.89;88.43;100040.94;5010653;28;20551;-73
2022/02/18 03:39:28;;;;;;;5.77;1.33;;;;;;;1.88;88.15;100044.38;5021089;28;20203;-73
2022/02/18 03:41:56;;;;;;;4.47;1.03;;;;;;;1.91;88.55;100031.50;5021236;28;20209;-75
2022/02/18 03:44:27;;;;;;;3.23;1.40;;;;;;;2.07;87.01;100040.06;5017795;28;20234;-74
2022/02/18 03:47:03;;;;;;;1.70;0.87;;;;;;;1.99;87.61;100045.25;5025335;28;20198;-73
2022/02/18 03:49:29;;;;;;;7.27;1.50;;;;;;;2.05;87.16;100046.94;5017712;28;20208;-74
2022/02/18 03:51:56;;;;;;;3.47;1.00;;;;;;;2.20;86.03;100056.34;5020947;28;20214;-74
2022/02/18 03:54:24;;;;;;;6.40;1.37;;;;;;;2.20;86.35;100064.94;5015557;28;20199;-75
2022/02/18 03:56:51;;;;;;;4.90;1.27;;;;;;;2.41;84.75;100050.31;5021902;28;20200;-75
2022/02/18 03:59:18;;;;;;;3.57;1.20;;;;;;;2.41;84.48;100058.03;5022470;28;20287;-76
2022/02/18 04:01:50;;;;;;;4.77;1.10;;;;;;;2.45;83.79;100060.59;5019928;28;20297;-75
2022/02/18 04:04:19;;;;;;;5.57;1.30;;;;;;;2.45;84.42;100057.19;5018451;28;20225;-74
2022/02/18 04:06:50;;;;;;;5.17;1.40;;;;;;;2.41;84.35;100050.31;5022689;28;20209;-74
2022/02/18 04:09:39;;;;;;;4.40;1.10;;;;;;;2.45;84.89;100054.63;5015441;28;20247;-76
2022/02/18 04:12:13;;;;;;;7.33;1.27;;;;;;;2.41;85.46;100060.59;5021532;28;20200;-75
2022/02/18 04:14:40;;;;;;;4.63;1.50;;;;;;;2.38;86.27;100055.50;5020411;28;20302;-77
2022/02/18 04:17:13;;;;;;;3.43;1.50;;;;;;;2.41;86.70;100051.19;5026776;28;20219;-75
2022/02/18 04:19:44;;;;;;;8.27;1.50;;;;;;;2.36;88.02;100050.34;5024714;28;20712;-75
2022/02/18 04:22:16;;;;;;;6.80;2.03;;;;;;;2.37;87.84;100061.47;5025325;28;20204;-75
2022/02/18 04:24:44;;;;;;;4.80;1.50;;;;;;;2.34;88.15;100053.75;5027526;28;20226;-76
2022/02/18 04:27:12;;;;;;;3.23;1.30;;;;;;;2.26;88.79;100064.91;5031391;28;20196;-74
2022/02/18 04:29:41;;;;;;;5.00;1.40;;;;;;;2.11;90.19;100064.97;5034780;28;20211;-75
2022/02/18 04:32:08;;;;;;;2.77;1.50;;;;;;;2.06;90.63;100064.94;5020565;28;20199;-75
2022/02/18 04:34:36;;;;;;;6.87;1.50;;;;;;;2.06;91.18;100066.66;5024887;28;20729;-78
2022/02/18 04:37:03;;;;;;;5.40;1.40;;;;;;;2.04;91.70;100070.94;5035000;28;20210;-75
2022/02/18 04:39:30;;;;;;;4.03;1.30;;;;;;;2.05;91.91;100070.09;5023904;28;20239;-73
2022/02/18 04:41:57;;;;;;;5.40;1.20;;;;;;;2.03;92.03;100067.50;5027588;28;20200;-75
2022/02/18 04:44:23;;;;;;;4.87;1.33;;;;;;;2.00;92.61;100067.50;5026707;28;20215;-75
2022/02/18 04:46:49;;;;;;;5.30;1.40;;;;;;;2.02;92.68;100076.09;5029451;28;20214;-73
2022/02/18 04:49:16;;;;;;;5.97;1.60;;;;;;;1.95;93.68;100068.38;5024777;28;20204;-74
2022/02/18 04:51:44;;;;;;;5.27;1.30;;;;;;;1.91;94.35;100079.53;5029995;28;20204;-75
2022/02/18 04:54:10;;;;;;;5.30;1.40;;;;;;;1.82;94.99;100081.22;5032043;28;20427;-78
2022/02/18 04:56:37;;;;;;;8.77;1.70;;;;;;;1.73;95.46;100082.94;5031391;28;20204;-75
2022/02/18 04:59:04;;;;;;;5.13;1.60;;;;;;;1.66;97.12;100089.78;5029436;28;20250;-75
2022/02/18 05:01:30;;;;;;;7.73;1.60;;;;;;;1.68;97.69;100078.63;5027333;28;20739;-75
2022/02/18 05:03:57;;;;;;;5.23;1.63;;;;;;;1.65;97.70;100068.38;5024180;28;20754;-78
2022/02/18 05:06:26;;;;;;;3.47;1.17;;;;;;;1.65;98.49;100070.94;5032785;28;20199;-79
2022/02/18 05:08:53;;;;;;;7.03;1.60;;;;;;;1.74;98.97;100064.91;5024888;28;20212;-77
2022/02/18 05:11:20;;;;;;;5.27;1.47;;;;;;;1.87;99.22;100065.81;5029188;28;20231;-75
2022/02/18 05:13:46;;;;;;;6.47;1.30;;;;;;;1.98;98.90;100064.09;5025381;28;20204;-76
2022/02/18 05:16:13;;;;;;;4.03;1.23;;;;;;;2.00;98.58;100057.22;5031707;28;20207;-76
2022/02/18 05:18:39;;;;;;;4.53;1.40;;;;;;;2.06;98.83;100057.22;5018801;28;20204;-76
2022/02/18 05:21:06;;;;;;;5.37;1.57;;;;;;;2.06;98.49;100056.38;5024987;28;20231;-74
2022/02/18 05:23:33;;;;;;;4.57;1.30;;;;;;;2.03;99.14;100062.38;5022842;28;20270;-75
2022/02/18 05:26:00;;;;;;;4.30;1.50;;;;;;;2.06;99.29;100064.94;5026046;28;20208;-76
2022/02/18 05:28:27;;;;;;;7.97;1.50;;;;;;;2.09;99.22;100064.06;5027619;28;20555;-75
2022/02/18 05:30:53;;;;;;;6.13;1.13;;;;;;;2.09;99.40;100064.06;5021733;28;20252;-74
2022/02/18 05:33:19;;;;;;;6.37;1.87;;;;;;;2.14;99.68;100056.38;5024088;28;20201;-75
2022/02/18 05:35:46;;;;;;;5.50;1.80;;;;;;;2.15;99.91;100052.94;5017685;28;20303;-74
2022/02/18 05:38:13;;;;;;;5.93;1.50;;;;;;;2.21;99.93;100048.63;5017889;28;20582;-72
2022/02/18 05:40:39;;;;;;;7.13;1.47;;;;;;;2.21;99.64;100050.34;5020281;28;20593;-75
2022/02/18 05:43:07;;;;;;;4.80;1.37;;;;;;;2.18;99.30;100053.81;5019229;28;20232;-74
2022/02/18 05:45:34;;;;;;;11.13;1.73;;;;;;;2.14;99.15;100058.94;5026107;28;20208;-74
2022/02/18 05:48:00;;;;;;;5.80;1.70;;;;;;;2.07;98.96;100060.66;5021651;28;20214;-74
2022/02/18 05:50:27;;;;;;;3.10;1.30;;;;;;;2.02;99.02;100058.09;5018201;28;20300;-75
2022/02/18 05:52:53;;;;;;;4.60;1.70;;;;;;;1.92;99.28;100061.53;5019325;28;20211;-74
2022/02/18 05:55:19;;;;;;;4.23;1.60;;;;;;;1.86;99.64;100062.34;5024087;28;20197;-75
2022/02/18 05:57:48;;;;;;;8.97;1.50;;;;;;;1.78;99.61;100068.38;5024232;28;20211;-75
2022/02/18 06:00:16;;;;;;;2.80;1.20;;;;;;;1.69;100.00;100066.66;5022954;28;20305;-74
2022/02/18 06:02:44;;;;;;;4.27;1.30;;;;;;;1.59;100.00;100065.78;5024963;28;20393;-75
2022/02/18 06:05:11;;;;;;;4.43;1.17;;;;;;;1.50;100.00;100066.59;5022707;28;20208;-73
2022/02/18 06:07:37;;;;;;;2.73;1.23;;;;;;;1.43;100.00;100061.47;5019008;28;20561;-75
2022/02/18 06:10:04;;;;;;;2.70;1.53;;;;;;;1.33;100.00;100068.28;5022556;28;20219;-75
2022/02/18 06:12:31;;;;;;;6.87;1.67;;;;;;;1.23;100.00;100062.28;5019780;28;20197;-75
2022/02/18 06:14:57;;;;;;;3.83;1.40;;;;;;;1.15;100.00;100074.22;5018952;28;20192;-75
2022/02/18 06:17:25;;;;;;;5.90;1.20;;;;;;;1.12;100.00;100072.50;5019389;28;20250;-75
2022/02/18 06:19:51;;;;;;;6.63;1.50;;;;;;;1.11;100.00;100075.94;5022739;28;20322;-76
2022/02/18 06:22:22;;;;;;;4.23;1.30;;;;;;;1.19;100.00;100075.09;5022928;28;20223;-76
2022/02/18 06:24:50;;;;;;;2.90;1.40;;;;;;;1.23;100.00;100081.94;5020172;28;20250;-74
2022/02/18 06:27:16;;;;;;;7.17;1.50;;;;;;;1.24;100.00;100074.25;5021692;28;20669;-77
2022/02/18 06:29:46;;;;;;;3.60;1.33;;;;;;;1.24;100.00;100076.81;5015830;28;20232;-74
2022/02/18 06:32:12;;;;;;;5.43;1.27;;;;;;;1.23;100.00;100079.38;5018719;28;20211;-76
2022/02/18 06:34:40;;;;;;;4.87;1.67;;;;;;;1.22;100.00;100077.69;5019403;28;20203;-79
2022/02/18 06:37:07;;;;;;;8.40;1.43;;;;;;;1.17;100.00;100084.50;5022179;28;20214;-75
2022/02/18 06:39:35;;;;;;;3.37;1.20;;;;;;;1.19;100.00;100078.50;5022552;28;20226;-73
2022/02/18 06:42:02;;;;;;;3.73;1.60;;;;;;;1.16;100.00;100081.06;5018650;28;20192;-72
2022/02/18 06:44:28;;;;;;;2.67;1.40;;;;;;;1.23;100.00;100080.25;5020671;28;20799;-75
2022/02/18 06:46:56;;;;;;;3.13;1.27;;;;;;;1.26;100.00;100081.97;5022989;28;20793;-75
2022/02/18 06:49:24;;;;;;;3.80;1.40;;;;;;;1.29;100.00;100077.69;5019327;28;20662;-75
2022/02/18 06:51:55;;;;;;;6.33;1.60;;;;;;;1.38;100.00;100076.00;5018818;28;20212;-74
2022/02/18 06:54:22;;;;;;;6.27;1.43;;;;;;;1.49;100.00;100080.28;5019639;28;22144;-75
2022/02/18 06:56:48;;;;;;;3.90;1.50;;;;;;;1.59;100.00;100077.78;5022064;28;20208;-74
2022/02/18 06:59:14;;;;;;;4.13;1.60;;;;;;;1.70;100.00;100079.47;5016254;28;20200;-75
2022/02/18 07:01:41;;;;;;;3.33;1.63;;;;;;;1.86;100.00;100074.38;5018323;28;20216;-75
2022/02/18 07:04:08;;;;;;;5.73;1.47;;;;;;;1.91;100.00;100077.78;5021635;28;20208;-75
2022/02/18 07:06:35;;;;;;;2.30;1.43;;;;;;;1.94;100.00;100071.81;5021005;28;20762;-75
2022/02/18 07:09:07;;;;;;;8.53;1.60;;;;;;;1.96;100.00;100065.81;5024106;28;20214;-73
2022/02/18 07:11:33;;;;;;;6.73;1.57;;;;;;;2.03;100.00;100069.22;5014873;28;20232;-75
2022/02/18 07:13:59;;;;;;;4.20;1.40;;;;;;;2.16;100.00;100070.06;5020703;28;20765;-74
2022/02/18 07:16:26;;;;;;;4.57;1.30;;;;;;;2.30;100.00;100059.78;5013735;28;20223;-75
2022/02/18 07:18:52;;;;;;;4.43;1.40;;;;;;;2.44;100.00;100052.88;5022466;28;20207;-75
2022/02/18 07:21:19;;;;;;;3.73;1.50;;;;;;;2.55;100.00;100043.44;5019047;28;20720;-76
2022/02/18 07:23:45;;;;;;;3.00;1.47;;;;;;;2.69;100.00;100050.25;5021014;28;20216;-75
2022/02/18 07:26:13;;;;;;;4.13;1.40;;;;;;;2.78;100.00;100039.91;5022469;28;20295;-74
2022/02/18 07:28:40;;;;;;;4.20;1.47;;;;;;;2.88;100.00;100033.03;5017621;28;20295;-75
2022/02/18 07:31:06;;;;;;;5.97;1.43;;;;;;;2.93;100.00;100032.13;5018838;28;20224;-76
2022/02/18 07:33:33;;;;;;;5.27;1.40;;;;;;;2.98;100.00;100026.97;5017768;28;20204;-76
2022/02/18 07:36:00;;;;;;;2.90;1.30;;;;;;;3.03;99.48;100038.13;5022285;28;20204;-73
2022/02/18 07:38:26;;;;;;;6.03;1.50;;;;;;;3.10;99.58;100036.38;5018842;28;20233;-75
2022/02/18 07:40:53;;;;;;;3.53;1.10;;;;;;;3.13;98.99;100026.03;5018437;28;20248;-74
2022/02/18 07:43:23;;;;;;;3.63;1.50;;;;;;;3.17;99.08;100027.75;5018126;28;20209;-75
2022/02/18 07:45:53;;;;;;;3.77;1.23;;;;;;;3.19;99.05;100028.59;5021784;28;20205;-77
2022/02/18 07:48:20;;;;;;;3.23;1.30;;;;;;;3.26;99.12;100024.25;5023888;28;20250;-75
2022/02/18 07:50:46;;;;;;;3.03;1.03;;;;;;;3.39;98.56;100015.56;5015278;28;20227;-76
2022/02/18 07:53:14;;;;;;;5.57;1.70;;;;;;;3.51;98.21;100007.75;5021358;28;20208;-75
2022/02/18 07:55:40;;;;;;;5.53;1.20;;;;;;;3.66;97.31;100014.53;5019863;28;20207;-73
2022/02/18 07:58:07;;;;;;;2.30;1.27;;;;;;;3.73;97.25;100015.31;5017130;28;20216;-75
2022/02/18 08:00:36;;;;;;;4.57;1.33;;;;;;;3.84;96.57;100012.69;5018908;28;20228;-75
2022/02/18 08:03:04;;;;;;;4.23;1.20;;;;;;;3.93;95.64;100015.19;5013416;28;20207;-76
2022/02/18 08:05:30;;;;;;;4.23;1.30;;;;;;;4.01;95.40;100009.94;5020879;28;20258;-76
2022/02/18 08:07:58;;;;;;;7.37;1.40;;;;;;;4.08;95.17;100011.59;5013231;28;20223;-76
2022/02/18 08:10:25;;;;;;;6.63;1.27;;;;;;;4.16;94.76;100012.38;5020637;28;20256;-73
2022/02/18 08:12:52;;;;;;;6.37;1.40;;;;;;;4.22;94.58;100014.03;5018515;28;20208;-76
2022/02/18 08:15:20;;;;;;;6.13;1.27;;;;;;;4.30;94.07;100007.94;5026886;28;20200;-79
2022/02/18 08:17:48;;;;;;;3.90;1.53;;;;;;;4.36;93.30;100013.06;5016159;28;20990;-75
2022/02/18 08:20:14;;;;;;;3.63;1.50;;;;;;;4.44;93.32;100005.22;5019934;28;20733;-75
2022/02/18 08:22:42;;;;;;;4.10;1.63;;;;;;;4.54;92.96;100008.56;5018186;28;20214;-76
2022/02/18 08:25:10;;;;;;;5.13;1.93;;;;;;;4.63;92.40;100005.03;5019875;28;20226;-73
2022/02/18 08:27:36;;;;;;;4.57;1.73;;;;;;;4.70;92.86;100010.09;5019791;28;20207;-75
2022/02/18 08:30:05;;;;;;;3.33;1.60;;;;;;;4.78;91.88;100009.97;5017438;28;20312;-76
2022/02/18 08:32:33;;;;;;;5.43;1.43;;;;;;;4.86;91.52;100010.75;5018336;28;20212;-75
2022/02/18 08:35:02;;;;;;;4.67;1.30;;;;;;;4.93;91.22;100011.53;5023821;28;20600;-75
2022/02/18 08:37:29;;;;;;;8.30;1.90;;;;;;;4.99;90.96;100021.78;5015673;28;20200;-75
2022/02/18 08:39:55;;;;;;;4.80;2.03;;;;;;;5.05;90.00;100020.88;5021132;28;20850;-75
2022/02/18 08:42:24;;;;;;;6.37;1.93;;;;;;;5.11;89.43;100013.03;5019862;28;20207;-74
2022/02/18 08:44:51;;;;;;;5.30;1.67;;;;;;;5.18;90.39;100012.06;5014300;28;20230;-74
2022/02/18 08:47:18;;;;;;;5.03;1.43;;;;;;;5.26;90.08;100014.56;5015067;28;20218;-75
2022/02/18 08:49:44;;;;;;;6.27;1.20;;;;;;;5.34;89.82;100007.53;5010210;28;20696;-76
2022/02/18 08:52:12;;;;;;;3.30;1.53;;;;;;;5.42;89.55;100007.44;5013046;28;20712;-75
2022/02/18 08:54:39;;;;;;;7.73;1.50;;;;;;;5.45;88.44;100009.94;5017582;28;20222;-73
2022/02/18 08:57:05;;;;;;;3.93;1.23;;;;;;;5.50;87.58;100003.84;5017157;28;20262;-76
2022/02/18 08:59:32;;;;;;;6.97;1.97;;;;;;;5.58;88.25;99995.13;5018219;28;20564;-75
2022/02/18 09:01:59;;;;;;;5.20;1.30;;;;;;;5.64;87.67;99995.84;5016008;28;20327;-74
2022/02/18 09:04:26;;;;;;;5.77;1.60;;;;;;;5.73;88.28;99997.44;5023713;28;20204;-76
2022/02/18 09:06:52;;;;;;;8.43;1.87;;;;;;;5.78;86.62;99994.78;5018134;28;20208;-76
2022/02/18 09:09:21;;;;;;;3.80;1.80;;;;;;;5.83;85.92;99988.66;5018858;28;20208;-76
2022/02/18 09:11:47;;;;;;;4.47;1.87;;;;;;;5.95;85.91;99989.34;5016778;28;20219;-75
2022/02/18 09:14:16;;;;;;;8.10;1.73;;;;;;;6.08;85.79;99983.09;5020667;28;20196;-75
2022/02/18 09:16:48;;;;;;;3.50;1.30;;;;;;;6.22;85.32;99973.31;5024894;28;20208;-74
2022/02/18 09:19:15;;;;;;;6.33;1.60;;;;;;;6.37;83.75;99971.34;5019547;28;20197;-73
2022/02/18 09:21:41;;;;;;;5.17;1.60;;;;;;;6.51;83.38;99956.41;5022470;28;20210;-76
2022/02/18 09:24:08;;;;;;;5.10;1.47;;;;;;;6.62;82.65;99946.66;5021093;28;21163;-73
2022/02/18 09:26:36;;;;;;;8.00;2.10;;;;;;;6.71;82.46;99955.13;5024223;28;20193;-74
2022/02/18 09:29:03;;;;;;;7.10;2.40;;;;;;;6.66;81.25;99957.81;5018378;28;20211;-74
2022/02/18 09:31:30;;;;;;;8.43;1.90;;;;;;;6.71;81.04;99953.38;5022833;28;20395;-76
2022/02/18 09:33:59;;;;;;;5.10;1.30;;;;;;;6.75;80.56;99952.41;5022254;28;20196;-76
2022/02/18 09:36:26;;;;;;;5.70;2.10;;;;;;;6.82;80.78;99955.75;5020474;28;20211;-75
2022/02/18 09:38:52;;;;;;;4.10;1.60;;;;;;;6.90;80.74;99956.44;5023876;28;20613;-75
2022/02/18 09:41:19;;;;;;;4.27;1.80;;;;;;;6.93;80.19;99952.91;5023812;28;20232;-75
2022/02/18 09:43:48;;;;;;;5.73;1.90;;;;;;;7.01;80.13;99946.69;5023896;28;20200;-76
2022/02/18 09:46:14;;;;;;;2.23;1.43;;;;;;;7.00;78.04;99952.78;5020320;28;20224;-76
2022/02/18 09:48:41;;;;;;;5.90;1.60;;;;;;;7.04;79.51;99945.78;5021084;28;20200;-75
2022/02/18 09:51:08;;;;;;;6.83;1.80;;;;;;;7.08;78.12;99937.03;5018481;28;20237;-76
2022/02/18 09:53:34;;;;;;;4.23;1.60;;;;;;;7.18;79.31;99924.72;5018715;28;20204;-74
2022/02/18 09:56:03;;;;;;;6.60;1.97;;;;;;;7.29;77.67;99937.44;5020853;28;20200;-73
2022/02/18 09:58:31;;;;;;;6.60;2.00;;;;;;;7.27;75.96;99934.03;5015255;28;20270;-75
2022/02/18 10:01:00;;;;;;;6.73;2.00;;;;;;;7.28;76.85;99920.16;5018194;28;20254;-80
2022/02/18 10:03:26;;;;;;;5.43;2.03;;;;;;;7.41;76.39;99910.38;5027364;28;20295;-75
2022/02/18 10:05:53;;;;;;;5.07;2.30;;;;;;;7.44;75.27;99916.31;5023059;28;20314;-76
2022/02/18 10:08:22;;;;;;;5.13;1.60;;;;;;;7.40;75.59;99914.69;5021848;28;20196;-76
2022/02/18 10:11:00;;;;;;;5.63;2.03;;;;;;;7.46;76.21;99905.88;5023772;28;20236;-76
2022/02/18 10:13:30;;;;;;;6.77;3.00;;;;;;;7.42;74.55;99902.50;5026284;28;20792;-76
2022/02/18 10:15:58;;;;;;;8.63;2.20;;;;;;;7.40;75.74;99891.34;5017988;28;20835;-76
2022/02/18 10:18:26;;;;;;;6.60;1.80;;;;;;;7.41;76.27;99892.22;5026002;28;20202;-75
2022/02/18 10:20:54;;;;;;;5.47;2.03;;;;;;;7.47;75.82;99890.28;5016877;28;20234;-76
2022/02/18 10:23:21;;;;;;;7.50;2.07;;;;;;;7.51;74.91;99891.94;5021123;28;20203;-76
2022/02/18 10:25:50;;;;;;;5.13;1.80;;;;;;;7.59;75.32;99886.53;5016165;28;20218;-76
2022/02/18 10:28:19;;;;;;;8.17;2.83;;;;;;;7.70;75.20;99881.91;5018091;28;20258;-76
2022/02/18 10:30:48;;;;;;;5.13;2.33;;;;;;;7.70;74.59;99888.84;5018421;28;20734;-75
2022/02/18 10:33:17;;;;;;;9.00;3.67;;;;;;;7.76;73.82;99893.91;5019379;28;20206;-75
2022/02/18 10:35:46;;;;;;;6.07;2.50;;;;;;;7.78;73.91;99889.53;5018317;28;20199;-75
2022/02/18 10:38:13;;;;;;;8.60;1.90;;;;;;;7.70;72.60;99881.91;5023338;28;20206;-75
2022/02/18 10:40:44;;;;;;;2.83;1.50;;;;;;;7.69;73.74;99880.22;5023415;28;20243;-75
2022/02/18 10:43:13;;;;;;;8.13;2.10;;;;;;;7.73;74.32;99873.22;5023460;28;20663;-74
2022/02/18 10:45:59;;;;;;;5.80;2.03;;;;;;;7.61;72.74;99874.38;5014343;28;20237;-76
2022/02/18 10:48:49;;;;;;;6.67;1.70;;;;;;;7.61;73.75;99857.97;5022608;28;20305;-77
2022/02/18 10:51:20;;;;;;;5.60;3.20;;;;;;;7.51;72.14;99855.63;5012298;28;20318;-76
2022/02/18 10:53:49;;;;;;;5.43;3.00;;;;;;;7.54;72.44;99847.72;5019376;28;20685;-76
2022/02/18 10:56:17;;;;;;;5.07;1.97;;;;;;;7.54;72.32;99844.31;5014934;28;20234;-75
2022/02/18 10:58:47;;;;;;;7.33;1.67;;;;;;;7.46;71.89;99834.13;5018181;28;20683;-73
2022/02/18 11:01:15;;;;;;;6.57;1.70;;;;;;;7.41;72.48;99824.78;5019202;28;20789;-74
2022/02/18 11:03:44;;;;;;;4.63;2.00;;;;;;;7.46;74.19;99812.50;5019115;28;20191;-76
2022/02/18 11:06:17;;;;;;;6.40;2.37;;;;;;;7.51;74.13;99803.75;5012891;28;22125;-75
2022/02/18 11:08:50;;;;;;;4.93;1.73;;;;;;;7.54;75.66;99797.59;5024233;28;20199;-75
2022/02/18 11:11:17;;;;;;;3.63;1.90;;;;;;;7.56;76.01;99794.09;5017433;28;20233;-75
2022/02/18 11:13:45;;;;;;;5.37;1.90;;;;;;;7.54;75.24;99800.19;5022784;28;20293;-76
2022/02/18 11:16:14;;;;;;;5.97;1.90;;;;;;;7.53;74.59;99788.97;5013417;28;20221;-76
2022/02/18 11:18:42;;;;;;;7.10;2.00;;;;;;;7.54;74.63;99788.06;5021626;28;20567;-74
2022/02/18 11:21:09;;;;;;;9.77;2.40;;;;;;;7.48;74.98;99779.63;5016084;28;20323;-79
2022/02/18 11:23:38;;;;;;;4.73;1.97;;;;;;;7.41;73.83;99778.94;5022094;28;20197;-76
2022/02/18 11:26:05;;;;;;;3.10;1.90;;;;;;;7.35;74.94;99771.31;5013561;28;20217;-75
2022/02/18 11:28:32;;;;;;;6.00;2.27;;;;;;;7.27;74.45;99766.34;5018498;28;20202;-76
2022/02/18 11:31:01;;;;;;;4.20;2.20;;;;;;;7.22;73.56;99767.34;5018925;28;20222;-75
2022/02/18 11:33:43;;;;;;;3.33;1.53;;;;;;;7.14;73.36;99768.41;5014698;28;20199;-74
2022/02/18 11:36:57;;;;;;;5.90;1.50;;;;;;;7.04;73.15;99759.16;5018123;28;20763;-74
2022/02/18 11:39:50;;;;;;;10.90;6.50;;;;;;;7.03;72.51;99741.88;4954628;28;20673;-78
2022/02/18 11:42:27;;;;;;;7.10;2.30;;;;;;;6.97;73.88;99727.34;5012564;28;20206;-73